Coral Coast — WDF5120 — position and weather

sailwx.info

Track history (hours):
 
Tides and Currents Weather Stations Pressure Air Temp Water Temp Dewpoint Dewpoint Depression Visibility Wind Speed Wind Dir Waves Ship Positions

Coral Coast

Owner: Dann MarineTowing, LC., Chesapeake City, MD. More information available from US FCC via Universal Licensing System and Coast Guard Vessel Documentation Center.

Last reported at 2017-Feb-24 21:32 UTC. Time now 2017-Feb-24 21:40 UTC.
Position N 40°44' W 073°58'.

Length 70 m; draft 5.3 m.

Type: Tug. MMSI: 367459570.

Date/timePositionNaut miles runAvg speedWind from/ knotsBaromVisibWave heightAir tempDewpointWater temp
2017-Feb-24 21:32N 40°44' W 073°58'8 7.6
2017-Feb-24 20:33N 40°39' W 074°05'0 0.0
2017-Feb-24 19:33N 40°39' W 074°05'1 1.1
2017-Feb-24 18:33N 40°39' W 074°04'1110.6
2017-Feb-24 17:33N 40°47' W 073°55'4 3.6
2017-Feb-24 16:33N 40°46' W 073°51'0 0.0
2017-Feb-24 15:33N 40°46' W 073°51'0 0.0
2017-Feb-24 14:33N 40°46' W 073°51'0 0.0
2017-Feb-24 13:33N 40°46' W 073°51'1 0.6
2017-Feb-24 12:33N 40°46' W 073°51'5 5.2
2017-Feb-24 11:33N 40°45' W 073°58'6 5.6
2017-Feb-24 10:33N 40°40' W 074°01'5 4.8
2017-Feb-24 09:33N 40°35' W 074°02'0 0.3
2017-Feb-24 08:33N 40°36' W 074°02'0 0.4
2017-Feb-24 07:33N 40°35' W 074°02'0 0.1
2017-Feb-24 06:33N 40°35' W 074°01'0 0.3
2017-Feb-24 05:33N 40°35' W 074°02'4 3.8
2017-Feb-24 04:33N 40°31' W 074°00'5 5.0
2017-Feb-24 03:31N 40°29' W 073°54'5 5.3
2017-Feb-24 02:31N 40°24' W 073°53'43 6.0
2017-Feb-23 19:25N 39°41' W 074°01'6 6.1
2017-Feb-23 18:26N 39°36' W 074°04'28 5.7
2017-Feb-23 13:33N 39°13' W 074°25'6 6.0
2017-Feb-23 12:31N 39°08' W 074°30'8 7.6
2017-Feb-23 11:26N 39°03' W 074°38'7 7.6
2017-Feb-23 10:33N 38°57' W 074°43'8 7.5
2017-Feb-23 09:33N 38°51' W 074°49'7 6.7
2017-Feb-23 08:33N 38°48' W 074°57'6 5.4
2017-Feb-23 07:28N 38°51' W 075°03'6 6.5
2017-Feb-23 06:29N 38°57' W 075°06'8 7.3
2017-Feb-23 05:24N 39°04' W 075°11'7 8.4
2017-Feb-23 04:33N 39°10' W 075°16'8 8.4
2017-Feb-23 03:33N 39°17' W 075°22'7 6.5
2017-Feb-23 02:33N 39°22' W 075°28'4 4.0
2017-Feb-23 01:33N 39°25' W 075°31'7 6.7
2017-Feb-23 00:33N 39°31' W 075°33'7 6.7
2017-Feb-22 23:33N 39°38' W 075°34'8 7.5
2017-Feb-22 22:33N 39°45' W 075°30'9 8.6
2017-Feb-22 21:33N 39°50' W 075°21'9 9.2
2017-Feb-22 20:33N 39°53' W 075°10'3 2.6
2017-Feb-22 19:33N 39°55' W 075°08'0 0.0
2017-Feb-22 18:33N 39°55' W 075°08'0 0.0
2017-Feb-22 17:33N 39°55' W 075°08'0 0.0
2017-Feb-22 16:33N 39°55' W 075°08'1 0.9
2017-Feb-22 15:33N 39°56' W 075°08'0 0.0
2017-Feb-22 14:33N 39°56' W 075°08'0 0.0
2017-Feb-22 13:33N 39°56' W 075°08'3 3.5
2017-Feb-22 12:33N 39°53' W 075°12'0 0.2
2017-Feb-22 11:33N 39°54' W 075°12'3 3.4
2017-Feb-22 10:33N 39°55' W 075°08'0 0.0
2017-Feb-22 09:33N 39°55' W 075°08'0 0.0
2017-Feb-22 08:33N 39°55' W 075°08'0 0.0
2017-Feb-22 07:33N 39°55' W 075°08'0 0.0
2017-Feb-22 06:34N 39°55' W 075°08'0 0.3
2017-Feb-22 05:34N 39°55' W 075°08'6 6.2
2017-Feb-22 04:33N 39°51' W 075°14'7 6.8
2017-Feb-22 03:34N 39°49' W 075°23'7 6.9
2017-Feb-22 02:34N 39°45' W 075°30'7 6.6
2017-Feb-22 01:33N 39°39' W 075°33'6 6.3
2017-Feb-22 00:33N 39°33' W 075°33'8 8.4
2017-Feb-21 23:33N 39°24' W 075°30'8 7.8
2017-Feb-21 22:33N 39°19' W 075°23'1010.3
2017-Feb-21 21:33N 39°10' W 075°16'1010.2
2017-Feb-21 20:33N 39°01' W 075°09'62 7.7
2017-Feb-21 12:30N 39°37' W 074°04'1010.0
2017-Feb-21 11:29N 39°46' W 073°59'4010.0
2017-Feb-21 07:32N 40°26' W 073°54'8 8.0
2017-Feb-21 06:33N 40°32' W 074°01'7 6.6
2017-Feb-21 05:33N 40°38' W 074°03'8 8.1
2017-Feb-21 04:33N 40°45' W 073°58'5 5.4
2017-Feb-21 03:33N 40°46' W 073°51'0 0.1
2017-Feb-21 02:33N 40°46' W 073°51'0 0.0
2017-Feb-21 01:33N 40°46' W 073°51'0 0.0
2017-Feb-21 00:33N 40°46' W 073°51'0 0.0
2017-Feb-20 23:33N 40°46' W 073°51'0 0.0
2017-Feb-20 22:33N 40°46' W 073°51'0 0.0
2017-Feb-20 21:33N 40°46' W 073°51'0 0.0
2017-Feb-20 20:33N 40°46' W 073°51'0 0.0
2017-Feb-20 19:33N 40°46' W 073°51'0 0.0
2017-Feb-20 18:33N 40°46' W 073°51'0 0.0
2017-Feb-20 17:34N 40°46' W 073°51'0 0.0
2017-Feb-20 16:33N 40°46' W 073°51'2 2.1
2017-Feb-20 15:33N 40°48' W 073°52'5 5.4
2017-Feb-20 14:33N 40°45' W 073°58'7 6.6
2017-Feb-20 13:34N 40°39' W 074°02'7 7.4
2017-Feb-20 12:33N 40°32' W 074°01'6 6.1
2017-Feb-20 11:33N 40°27' W 073°55'31 6.1
2017-Feb-20 06:30N 39°56' W 074°01'7 6.2
2017-Feb-20 05:22N 39°49' W 074°02'6 6.2
2017-Feb-20 04:23N 39°43' W 074°03'6 6.3
2017-Feb-20 03:22N 39°38' W 074°07'6 6.4
2017-Feb-20 02:23N 39°32' W 074°10'175 8.4
2017-Feb-19 05:33N 36°58' W 075°55'20 9.5
2017-Feb-19 03:25N 36°57' W 076°20'  
2017-Feb-16 14:19N 36°56' W 076°20'0 0.0
2017-Feb-16 13:31N 36°56' W 076°20'0 0.0
2017-Feb-16 12:33N 36°56' W 076°20'0 0.0
2017-Feb-16 11:33N 36°56' W 076°20'0 0.0
2017-Feb-16 10:33N 36°56' W 076°20'0 0.0
2017-Feb-16 09:31N 36°56' W 076°20'0 0.0
2017-Feb-15 12:07N 36°56' W 076°20'0 0.0
2017-Feb-15 11:04N 36°56' W 076°20'0 0.0
2017-Feb-15 10:22N 36°56' W 076°20'0 0.0
2017-Feb-15 09:33N 36°56' W 076°20'0 0.0
2017-Feb-15 08:33N 36°56' W 076°20'0 0.0
2017-Feb-15 07:33N 36°56' W 076°20'0 0.0
2017-Feb-15 06:34N 36°56' W 076°20'0 0.0
2017-Feb-15 05:31N 36°56' W 076°20'0 0.0
2017-Feb-15 04:33N 36°56' W 076°20'0 0.0
2017-Feb-15 03:06N 36°56' W 076°20'0 0.0
2017-Feb-14 23:32N 36°56' W 076°20'0 0.0
2017-Feb-14 21:33N 36°56' W 076°20'  
Track history (hours):
 
Tides and Currents Weather Stations Pressure Air Temp Water Temp Dewpoint Dewpoint Depression Visibility Wind Speed Wind Dir Waves Ship Positions

Coral Coast

Owner: Dann MarineTowing, LC., Chesapeake City, MD. More information available from US FCC via Universal Licensing System and Coast Guard Vessel Documentation Center.

Last reported at 2017-Feb-24 21:32 UTC. Time now 2017-Feb-24 21:40 UTC.
Position N 40°44' W 073°58'.

Length 70 m; draft 5.3 m.

Type: Tug. MMSI: 367459570.

Date/timePositionNaut miles runAvg speedWind from/ knotsBaromVisibWave heightAir tempDewpointWater temp
2017-Feb-24 21:32N 40°44' W 073°58'8 7.6
2017-Feb-24 20:33N 40°39' W 074°05'0 0.0
2017-Feb-24 19:33N 40°39' W 074°05'1 1.1
2017-Feb-24 18:33N 40°39' W 074°04'1110.6
2017-Feb-24 17:33N 40°47' W 073°55'4 3.6
2017-Feb-24 16:33N 40°46' W 073°51'0 0.0
2017-Feb-24 15:33N 40°46' W 073°51'0 0.0
2017-Feb-24 14:33N 40°46' W 073°51'0 0.0
2017-Feb-24 13:33N 40°46' W 073°51'1 0.6
2017-Feb-24 12:33N 40°46' W 073°51'5 5.2
2017-Feb-24 11:33N 40°45' W 073°58'6 5.6
2017-Feb-24 10:33N 40°40' W 074°01'5 4.8
2017-Feb-24 09:33N 40°35' W 074°02'0 0.3
2017-Feb-24 08:33N 40°36' W 074°02'0 0.4
2017-Feb-24 07:33N 40°35' W 074°02'0 0.1
2017-Feb-24 06:33N 40°35' W 074°01'0 0.3
2017-Feb-24 05:33N 40°35' W 074°02'4 3.8
2017-Feb-24 04:33N 40°31' W 074°00'5 5.0
2017-Feb-24 03:31N 40°29' W 073°54'5 5.3
2017-Feb-24 02:31N 40°24' W 073°53'43 6.0
2017-Feb-23 19:25N 39°41' W 074°01'6 6.1
2017-Feb-23 18:26N 39°36' W 074°04'28 5.7
2017-Feb-23 13:33N 39°13' W 074°25'6 6.0
2017-Feb-23 12:31N 39°08' W 074°30'8 7.6
2017-Feb-23 11:26N 39°03' W 074°38'7 7.6
2017-Feb-23 10:33N 38°57' W 074°43'8 7.5
2017-Feb-23 09:33N 38°51' W 074°49'7 6.7
2017-Feb-23 08:33N 38°48' W 074°57'6 5.4
2017-Feb-23 07:28N 38°51' W 075°03'6 6.5
2017-Feb-23 06:29N 38°57' W 075°06'8 7.3
2017-Feb-23 05:24N 39°04' W 075°11'7 8.4
2017-Feb-23 04:33N 39°10' W 075°16'8 8.4
2017-Feb-23 03:33N 39°17' W 075°22'7 6.5
2017-Feb-23 02:33N 39°22' W 075°28'4 4.0
2017-Feb-23 01:33N 39°25' W 075°31'7 6.7
2017-Feb-23 00:33N 39°31' W 075°33'7 6.7
2017-Feb-22 23:33N 39°38' W 075°34'8 7.5
2017-Feb-22 22:33N 39°45' W 075°30'9 8.6
2017-Feb-22 21:33N 39°50' W 075°21'9 9.2
2017-Feb-22 20:33N 39°53' W 075°10'3 2.6
2017-Feb-22 19:33N 39°55' W 075°08'0 0.0
2017-Feb-22 18:33N 39°55' W 075°08'0 0.0
2017-Feb-22 17:33N 39°55' W 075°08'0 0.0
2017-Feb-22 16:33N 39°55' W 075°08'1 0.9
2017-Feb-22 15:33N 39°56' W 075°08'0 0.0
2017-Feb-22 14:33N 39°56' W 075°08'0 0.0
2017-Feb-22 13:33N 39°56' W 075°08'3 3.5
2017-Feb-22 12:33N 39°53' W 075°12'0 0.2
2017-Feb-22 11:33N 39°54' W 075°12'3 3.4
2017-Feb-22 10:33N 39°55' W 075°08'0 0.0
2017-Feb-22 09:33N 39°55' W 075°08'0 0.0
2017-Feb-22 08:33N 39°55' W 075°08'0 0.0
2017-Feb-22 07:33N 39°55' W 075°08'0 0.0
2017-Feb-22 06:34N 39°55' W 075°08'0 0.3
2017-Feb-22 05:34N 39°55' W 075°08'6 6.2
2017-Feb-22 04:33N 39°51' W 075°14'7 6.8
2017-Feb-22 03:34N 39°49' W 075°23'7 6.9
2017-Feb-22 02:34N 39°45' W 075°30'7 6.6
2017-Feb-22 01:33N 39°39' W 075°33'6 6.3
2017-Feb-22 00:33N 39°33' W 075°33'8 8.4
2017-Feb-21 23:33N 39°24' W 075°30'8 7.8
2017-Feb-21 22:33N 39°19' W 075°23'1010.3
2017-Feb-21 21:33N 39°10' W 075°16'1010.2
2017-Feb-21 20:33N 39°01' W 075°09'62 7.7
2017-Feb-21 12:30N 39°37' W 074°04'1010.0
2017-Feb-21 11:29N 39°46' W 073°59'4010.0
2017-Feb-21 07:32N 40°26' W 073°54'8 8.0
2017-Feb-21 06:33N 40°32' W 074°01'7 6.6
2017-Feb-21 05:33N 40°38' W 074°03'8 8.1
2017-Feb-21 04:33N 40°45' W 073°58'5 5.4
2017-Feb-21 03:33N 40°46' W 073°51'0 0.1
2017-Feb-21 02:33N 40°46' W 073°51'0 0.0
2017-Feb-21 01:33N 40°46' W 073°51'0 0.0
2017-Feb-21 00:33N 40°46' W 073°51'0 0.0
2017-Feb-20 23:33N 40°46' W 073°51'0 0.0
2017-Feb-20 22:33N 40°46' W 073°51'0 0.0
2017-Feb-20 21:33N 40°46' W 073°51'0 0.0
2017-Feb-20 20:33N 40°46' W 073°51'0 0.0
2017-Feb-20 19:33N 40°46' W 073°51'0 0.0
2017-Feb-20 18:33N 40°46' W 073°51'0 0.0
2017-Feb-20 17:34N 40°46' W 073°51'0 0.0
2017-Feb-20 16:33N 40°46' W 073°51'2 2.1
2017-Feb-20 15:33N 40°48' W 073°52'5 5.4
2017-Feb-20 14:33N 40°45' W 073°58'7 6.6
2017-Feb-20 13:34N 40°39' W 074°02'7 7.4
2017-Feb-20 12:33N 40°32' W 074°01'6 6.1
2017-Feb-20 11:33N 40°27' W 073°55'31 6.1
2017-Feb-20 06:30N 39°56' W 074°01'7 6.2
2017-Feb-20 05:22N 39°49' W 074°02'6 6.2
2017-Feb-20 04:23N 39°43' W 074°03'6 6.3
2017-Feb-20 03:22N 39°38' W 074°07'6 6.4
2017-Feb-20 02:23N 39°32' W 074°10'175 8.4
2017-Feb-19 05:33N 36°58' W 075°55'20 9.5
2017-Feb-19 03:25N 36°57' W 076°20'  
2017-Feb-16 14:19N 36°56' W 076°20'0 0.0
2017-Feb-16 13:31N 36°56' W 076°20'0 0.0
2017-Feb-16 12:33N 36°56' W 076°20'0 0.0
2017-Feb-16 11:33N 36°56' W 076°20'0 0.0
2017-Feb-16 10:33N 36°56' W 076°20'0 0.0
2017-Feb-16 09:31N 36°56' W 076°20'0 0.0
2017-Feb-15 12:07N 36°56' W 076°20'0 0.0
2017-Feb-15 11:04N 36°56' W 076°20'0 0.0
2017-Feb-15 10:22N 36°56' W 076°20'0 0.0
2017-Feb-15 09:33N 36°56' W 076°20'0 0.0
2017-Feb-15 08:33N 36°56' W 076°20'0 0.0
2017-Feb-15 07:33N 36°56' W 076°20'0 0.0
2017-Feb-15 06:34N 36°56' W 076°20'0 0.0
2017-Feb-15 05:31N 36°56' W 076°20'0 0.0
2017-Feb-15 04:33N 36°56' W 076°20'0 0.0
2017-Feb-15 03:06N 36°56' W 076°20'0 0.0
2017-Feb-14 23:32N 36°56' W 076°20'0 0.0
2017-Feb-14 21:33N 36°56' W 076°20'  

Dump ship's entire track history